Time;durP1;ratioP1;P1;durP2;ratioP2;P2;SDS_P1;SDS_P2;PMS_P1;PMS_P2;Temp;Humidity;BMP_temperature;BMP_pressure;BME280_temperature;BME280_humidity;BME280_pressure;Samples;Min_cycle;Max_cycle;Signal;HPM_P1;HPM_P2
2023/09/29 00:00:33;;;;;;;;;;;20.10;87.90;;;;;;4155042;28;19974;-46
2023/09/29 00:03:17;;;;;;;;;;;20.10;87.90;;;;;;4154631;28;19932;-43
2023/09/29 00:05:58;;;;;;;;;;;20.10;87.90;;;;;;4108341;28;20024;-44
2023/09/29 00:11:45;;;;;;;;;;;20.10;87.90;;;;;;4152114;28;20339;-44
2023/09/29 00:14:30;;;;;;;;;;;20.10;88.00;;;;;;4124899;28;20060;-44
2023/09/29 00:17:12;;;;;;;;;;;20.10;87.90;;;;;;4124781;28;19952;-43
2023/09/29 00:20:08;;;;;;;;;;;20.10;88.00;;;;;;4139820;28;19976;-45
2023/09/29 00:22:52;;;;;;;;;;;20.10;88.00;;;;;;4122973;28;20310;-44
2023/09/29 00:25:36;;;;;;;;;;;20.10;88.00;;;;;;4124564;28;20386;-44
2023/09/29 00:28:18;;;;;;;;;;;20.10;88.00;;;;;;4127373;28;19977;-46
2023/09/29 00:30:59;;;;;;;;;;;20.10;88.10;;;;;;4154479;28;20381;-46
2023/09/29 00:33:57;;;;;;;;;;;20.00;88.10;;;;;;4106723;28;19937;-45
2023/09/29 00:36:57;;;;;;;;;;;20.10;88.10;;;;;;4106067;28;20295;-44
2023/09/29 00:39:40;;;;;;;;;;;20.00;88.10;;;;;;4122249;28;19976;-47
2023/09/29 00:42:32;;;;;;;;;;;20.10;88.10;;;;;;4122146;28;20389;-44
2023/09/29 00:45:23;;;;;;;;;;;20.00;88.10;;;;;;4122692;28;19933;-46
2023/09/29 00:48:10;;;;;;;;;;;20.00;88.10;;;;;;4121149;28;20071;-44
2023/09/29 00:50:55;;;;;;;;;;;20.00;88.10;;;;;;4124451;28;19968;-46
2023/09/29 00:54:00;;;;;;;;;;;20.00;88.10;;;;;;4107562;28;20405;-44
2023/09/29 00:57:00;;;;;;;;;;;20.00;88.10;;;;;;4108159;28;19942;-48
2023/09/29 01:02:43;;;;;;;;;;;20.00;88.20;;;;;;4116880;28;19932;-46
2023/09/29 01:05:35;;;;;;;;;;;20.00;88.20;;;;;;4125568;28;19936;-41
2023/09/29 01:08:26;;;;;;;;;;;20.00;88.20;;;;;;4124393;28;19937;-44
2023/09/29 01:11:20;;;;;;;;;;;20.00;88.20;;;;;;4124500;28;20031;-45
2023/09/29 01:14:07;;;;;;;;;;;20.00;89.10;;;;;;4106682;28;19972;-47
2023/09/29 01:16:54;;;;;;;;;;;20.00;89.20;;;;;;4109238;28;20299;-46
2023/09/29 01:19:38;;;;;;;;;;;20.00;88.40;;;;;;4108064;28;19936;-43
2023/09/29 01:22:20;;;;;;;;;;;20.00;88.40;;;;;;4117010;28;19932;-42
2023/09/29 01:25:05;;;;;;;;;;;20.00;88.40;;;;;;4124009;28;20390;-44
2023/09/29 01:27:48;;;;;;;;;;;20.00;88.40;;;;;;4134476;28;19936;-45
2023/09/29 01:30:29;;;;;;;;;;;20.00;88.40;;;;;;4153415;28;19932;-44
2023/09/29 01:33:19;;;;;;;;;;;20.00;88.40;;;;;;4109801;28;20065;-46
2023/09/29 01:36:05;;;;;;;;;;;20.00;88.50;;;;;;4105962;28;20663;-43
2023/09/29 01:38:46;;;;;;;;;;;20.00;88.50;;;;;;4116185;28;20405;-44
2023/09/29 01:41:33;;;;;;;;;;;20.00;88.50;;;;;;4108122;28;19937;-45
2023/09/29 01:44:35;;;;;;;;;;;20.00;88.50;;;;;;4122023;28;19936;-43
2023/09/29 01:47:22;;;;;;;;;;;20.00;89.40;;;;;;4128550;28;20016;-44
2023/09/29 01:50:20;;;;;;;;;;;20.00;88.50;;;;;;4154374;28;19936;-46
2023/09/29 01:53:03;;;;;;;;;;;19.90;88.50;;;;;;4112141;28;19934;-45
2023/09/29 01:55:48;;;;;;;;;;;20.00;88.60;;;;;;4107774;28;19933;-44
2023/09/29 01:58:36;;;;;;;;;;;19.90;88.60;;;;;;4123288;28;19952;-43
2023/09/29 02:01:19;;;;;;;;;;;19.90;88.60;;;;;;4128537;28;19960;-43
2023/09/29 02:04:01;;;;;;;;;;;19.90;88.60;;;;;;4110669;28;19933;-45
2023/09/29 02:06:49;;;;;;;;;;;20.00;88.70;;;;;;4113869;28;20318;-45
2023/09/29 02:09:30;;;;;;;;;;;19.90;88.70;;;;;;4126597;28;19956;-41
2023/09/29 02:12:17;;;;;;;;;;;20.00;88.70;;;;;;4125473;28;19937;-46
2023/09/29 02:15:03;;;;;;;;;;;19.90;88.70;;;;;;4126312;28;19933;-45
2023/09/29 02:17:47;;;;;;;;;;;19.90;89.60;;;;;;4144432;28;19936;-42
2023/09/29 02:20:31;;;;;;;;;;;19.90;88.70;;;;;;4143973;28;19937;-42
2023/09/29 02:23:17;;;;;;;;;;;19.90;88.70;;;;;;4128995;28;20297;-43
2023/09/29 02:26:10;;;;;;;;;;;19.90;88.80;;;;;;4124020;28;20345;-42
2023/09/29 02:29:07;;;;;;;;;;;19.90;88.90;;;;;;4108801;28;19932;-41
2023/09/29 02:31:50;;;;;;;;;;;19.90;89.70;;;;;;4109200;28;19980;-46
2023/09/29 02:34:31;;;;;;;;;;;19.90;88.80;;;;;;4109812;28;20497;-45
2023/09/29 02:37:23;;;;;;;;;;;19.90;88.90;;;;;;4128810;28;20389;-44
2023/09/29 02:40:20;;;;;;;;;;;19.90;88.90;;;;;;4140273;28;20016;-46
2023/09/29 02:43:02;;;;;;;;;;;19.90;88.90;;;;;;4124658;28;19937;-42
2023/09/29 02:45:43;;;;;;;;;;;19.90;88.90;;;;;;4123932;28;19936;-41
2023/09/29 02:48:27;;;;;;;;;;;19.90;88.90;;;;;;4110050;28;19980;-44
2023/09/29 02:51:14;;;;;;;;;;;19.90;88.90;;;;;;4125364;28;19933;-44
2023/09/29 02:53:59;;;;;;;;;;;19.90;89.00;;;;;;4123235;28;19980;-44
2023/09/29 02:56:42;;;;;;;;;;;19.90;89.00;;;;;;4123134;28;19984;-45
2023/09/29 02:59:27;;;;;;;;;;;19.90;90.00;;;;;;4122665;28;19998;-43
2023/09/29 03:02:08;;;;;;;;;;;19.90;89.20;;;;;;4114963;28;19938;-45
2023/09/29 03:04:52;;;;;;;;;;;19.90;90.00;;;;;;4123252;28;19979;-44
2023/09/29 03:07:34;;;;;;;;;;;19.90;89.20;;;;;;4146897;28;20339;-43
2023/09/29 03:10:17;;;;;;;;;;;19.90;89.20;;;;;;4142009;28;20064;-41
2023/09/29 03:13:03;;;;;;;;;;;19.90;89.10;;;;;;4126840;28;20064;-43
2023/09/29 03:15:48;;;;;;;;;;;19.80;89.10;;;;;;4113536;28;20080;-43
2023/09/29 03:18:38;;;;;;;;;;;19.90;89.20;;;;;;4125663;28;19936;-43
2023/09/29 03:21:24;;;;;;;;;;;19.80;90.00;;;;;;4110776;28;19953;-46
2023/09/29 03:24:09;;;;;;;;;;;19.80;89.10;;;;;;4109019;28;19942;-42
2023/09/29 03:26:51;;;;;;;;;;;19.90;89.20;;;;;;4134609;28;19979;-41
2023/09/29 03:29:35;;;;;;;;;;;19.80;89.10;;;;;;4152472;28;20293;-44
2023/09/29 03:32:16;;;;;;;;;;;19.80;89.20;;;;;;4125110;28;19937;-45
2023/09/29 03:34:59;;;;;;;;;;;19.80;89.20;;;;;;4122915;28;20024;-42
2023/09/29 03:37:55;;;;;;;;;;;19.80;89.20;;;;;;4108882;28;19937;-40
2023/09/29 03:40:39;;;;;;;;;;;19.80;89.10;;;;;;4121990;28;19980;-41
2023/09/29 03:43:21;;;;;;;;;;;19.80;89.20;;;;;;4125025;28;20027;-41
2023/09/29 03:46:06;;;;;;;;;;;19.80;89.20;;;;;;4116311;28;20039;-41
2023/09/29 03:52:06;;;;;;;;;;;19.80;89.10;;;;;;4107200;28;19940;-43
2023/09/29 03:54:58;;;;;;;;;;;19.80;89.10;;;;;;4111717;28;19994;-44
2023/09/29 03:57:49;;;;;;;;;;;19.80;89.20;;;;;;4108857;28;20068;-41
2023/09/29 04:01:00;;;;;;;;;;;19.80;89.20;;;;;;4123859;28;19933;-41
2023/09/29 04:03:46;;;;;;;;;;;19.80;90.00;;;;;;4124998;28;20027;-42
2023/09/29 04:06:36;;;;;;;;;;;19.80;89.30;;;;;;4125025;28;19975;-46
2023/09/29 04:09:21;;;;;;;;;;;19.80;89.30;;;;;;4122760;28;19941;-42
2023/09/29 04:12:07;;;;;;;;;;;19.80;89.40;;;;;;4126058;28;20414;-43
2023/09/29 04:14:52;;;;;;;;;;;19.80;89.40;;;;;;4124310;28;20271;-46
2023/09/29 04:17:37;;;;;;;;;;;19.80;89.40;;;;;;4108622;28;20026;-44
2023/09/29 04:20:19;;;;;;;;;;;19.80;89.50;;;;;;4111732;28;19933;-44
2023/09/29 04:23:01;;;;;;;;;;;19.80;89.50;;;;;;4121616;28;19980;-43
2023/09/29 04:25:43;;;;;;;;;;;19.80;89.50;;;;;;4133640;28;20297;-43
2023/09/29 04:28:27;;;;;;;;;;;19.80;89.60;;;;;;4143280;28;19932;-43
2023/09/29 04:31:08;;;;;;;;;;;19.80;89.50;;;;;;4155322;28;19944;-43
2023/09/29 04:33:56;;;;;;;;;;;19.70;89.50;;;;;;4126597;28;20448;-45
2023/09/29 04:36:50;;;;;;;;;;;19.80;89.60;;;;;;4123253;28;19937;-45
2023/09/29 04:39:43;;;;;;;;;;;19.80;89.60;;;;;;4122774;28;19937;-45
2023/09/29 04:42:31;;;;;;;;;;;19.70;89.60;;;;;;4107192;28;19953;-46
2023/09/29 04:45:13;;;;;;;;;;;19.80;89.60;;;;;;4109936;28;20024;-42
2023/09/29 04:47:58;;;;;;;;;;;19.70;89.60;;;;;;4155092;28;19932;-40
2023/09/29 04:50:39;;;;;;;;;;;19.80;89.70;;;;;;4148690;28;20745;-44
2023/09/29 04:53:20;;;;;;;;;;;19.80;90.00;;;;;;4122949;28;19936;-42
2023/09/29 04:56:03;;;;;;;;;;;19.80;89.90;;;;;;4137309;28;19936;-43
2023/09/29 05:04:47;;;;;;;;;;;19.80;89.80;;;;;;4363011;23;19926;-56
2023/09/29 05:07:57;;;;;;;;;;;19.80;89.80;;;;;;4352224;23;20027;-53
2023/09/29 05:10:38;;;;;;;;;;;19.80;89.80;;;;;;4123207;28;20027;-54
2023/09/29 05:13:18;;;;;;;;;;;19.80;89.80;;;;;;4122780;28;19933;-57
2023/09/29 05:15:59;;;;;;;;;;;19.80;89.80;;;;;;4123172;28;20282;-57
2023/09/29 05:18:40;;;;;;;;;;;19.80;89.90;;;;;;4123122;28;19933;-57
2023/09/29 05:21:24;;;;;;;;;;;19.80;89.80;;;;;;4123387;28;19964;-57
2023/09/29 05:24:05;;;;;;;;;;;19.80;89.90;;;;;;4123351;28;19933;-57
2023/09/29 05:26:46;;;;;;;;;;;19.80;89.90;;;;;;4107098;28;19937;-57
2023/09/29 05:29:26;;;;;;;;;;;19.80;89.90;;;;;;4106751;28;19941;-56
2023/09/29 05:32:07;;;;;;;;;;;19.80;89.90;;;;;;4106381;28;19941;-57
2023/09/29 05:34:47;;;;;;;;;;;19.80;90.30;;;;;;4107518;28;19933;-59
2023/09/29 05:37:30;;;;;;;;;;;19.80;90.00;;;;;;4106607;28;20389;-59
2023/09/29 05:40:11;;;;;;;;;;;19.80;90.10;;;;;;4106473;28;20068;-49
2023/09/29 05:42:52;;;;;;;;;;;19.70;90.00;;;;;;4106985;28;20303;-53
2023/09/29 05:45:33;;;;;;;;;;;19.80;90.40;;;;;;4114368;28;19933;-52
2023/09/29 05:48:14;;;;;;;;;;;19.80;90.90;;;;;;4122934;28;20393;-54
2023/09/29 05:50:55;;;;;;;;;;;19.80;91.30;;;;;;4122570;28;19948;-56
2023/09/29 05:53:37;;;;;;;;;;;19.80;91.90;;;;;;4133160;28;19941;-53
2023/09/29 05:56:19;;;;;;;;;;;19.80;91.40;;;;;;4109210;28;19937;-51
2023/09/29 05:58:59;;;;;;;;;;;19.80;91.30;;;;;;4117944;28;19933;-51
2023/09/29 06:01:40;;;;;;;;;;;19.80;91.10;;;;;;4123244;28;19941;-56
2023/09/29 06:04:22;;;;;;;;;;;19.80;91.00;;;;;;4122658;28;19937;-53
2023/09/29 06:07:03;;;;;;;;;;;19.80;90.90;;;;;;4122590;28;19936;-53
2023/09/29 06:09:45;;;;;;;;;;;19.80;90.90;;;;;;4122381;28;19945;-51
2023/09/29 06:12:26;;;;;;;;;;;19.80;90.80;;;;;;4122503;28;19937;-53
2023/09/29 06:15:09;;;;;;;;;;;19.80;90.80;;;;;;4116820;28;19937;-54
2023/09/29 06:17:50;;;;;;;;;;;19.80;90.80;;;;;;4106578;28;19941;-53
2023/09/29 06:20:31;;;;;;;;;;;19.80;90.80;;;;;;4119128;28;19948;-54
2023/09/29 06:23:11;;;;;;;;;;;19.80;90.70;;;;;;4112605;28;20093;-55
2023/09/29 06:25:58;;;;;;;;;;;19.80;90.70;;;;;;4122493;28;19933;-39
2023/09/29 06:28:39;;;;;;;;;;;19.80;90.70;;;;;;4106143;28;19984;-39
2023/09/29 06:31:20;;;;;;;;;;;19.80;90.70;;;;;;4112111;28;20015;-40
2023/09/29 06:34:00;;;;;;;;;;;19.80;90.70;;;;;;4109575;28;19934;-40
2023/09/29 06:36:42;;;;;;;;;;;19.80;90.80;;;;;;4106498;28;19945;-40
2023/09/29 06:39:23;;;;;;;;;;;19.80;91.30;;;;;;4106158;28;20020;-40
2023/09/29 06:42:05;;;;;;;;;;;19.80;90.90;;;;;;4115355;28;19936;-40
2023/09/29 06:44:46;;;;;;;;;;;19.80;90.90;;;;;;4123799;28;19941;-42
2023/09/29 06:47:27;;;;;;;;;;;19.90;90.90;;;;;;4114591;28;19949;-40
2023/09/29 06:50:10;;;;;;;;;;;19.80;90.80;;;;;;4109232;28;19933;-49
2023/09/29 06:52:51;;;;;;;;;;;19.90;90.80;;;;;;4108191;28;19941;-42
2023/09/29 06:55:32;;;;;;;;;;;19.90;90.80;;;;;;4108777;28;19937;-43
2023/09/29 06:58:14;;;;;;;;;;;19.80;90.80;;;;;;4122123;28;20282;-43
2023/09/29 07:00:56;;;;;;;;;;;19.80;90.80;;;;;;4125305;28;19980;-43
2023/09/29 07:03:41;;;;;;;;;;;19.80;90.80;;;;;;4124887;28;19952;-42
2023/09/29 07:06:23;;;;;;;;;;;19.80;90.80;;;;;;4124841;28;20019;-42
2023/09/29 07:09:04;;;;;;;;;;;19.80;90.80;;;;;;4108678;28;20386;-42
2023/09/29 07:11:45;;;;;;;;;;;19.80;90.80;;;;;;4108312;28;19957;-42
2023/09/29 07:14:27;;;;;;;;;;;19.80;90.80;;;;;;4108282;28;20533;-45
2023/09/29 07:17:08;;;;;;;;;;;19.80;90.80;;;;;;4112494;28;20346;-42
2023/09/29 07:19:48;;;;;;;;;;;19.80;90.80;;;;;;4124995;28;19936;-43
2023/09/29 07:22:29;;;;;;;;;;;19.80;90.80;;;;;;4124688;28;19932;-42
2023/09/29 07:25:10;;;;;;;;;;;19.80;90.80;;;;;;4124226;28;19937;-42
2023/09/29 07:27:51;;;;;;;;;;;19.80;90.80;;;;;;4114380;28;19941;-42
2023/09/29 07:30:33;;;;;;;;;;;19.80;90.80;;;;;;4108519;28;19933;-44
2023/09/29 07:33:14;;;;;;;;;;;19.80;90.80;;;;;;4108779;28;20668;-43
2023/09/29 07:35:55;;;;;;;;;;;19.80;91.20;;;;;;4108413;28;19933;-42
2023/09/29 07:38:36;;;;;;;;;;;19.80;90.80;;;;;;4121364;28;19932;-42
2023/09/29 07:41:17;;;;;;;;;;;19.80;90.80;;;;;;4123208;28;19953;-42
2023/09/29 07:43:58;;;;;;;;;;;19.80;90.80;;;;;;4123918;28;20302;-43
2023/09/29 07:46:40;;;;;;;;;;;19.80;90.80;;;;;;4122942;28;20394;-42
2023/09/29 07:49:23;;;;;;;;;;;19.80;90.80;;;;;;4107907;28;19937;-43
2023/09/29 07:52:04;;;;;;;;;;;19.80;90.90;;;;;;4107598;28;19937;-42
2023/09/29 07:54:45;;;;;;;;;;;19.80;90.90;;;;;;4107962;28;20040;-45
2023/09/29 07:57:26;;;;;;;;;;;19.90;91.00;;;;;;4110906;28;19933;-42
2023/09/29 08:00:10;;;;;;;;;;;19.90;91.00;;;;;;4123405;28;19987;-41
2023/09/29 08:02:55;;;;;;;;;;;19.80;91.00;;;;;;4123341;28;19940;-40
2023/09/29 08:05:35;;;;;;;;;;;19.90;91.00;;;;;;4122415;28;19936;-41
2023/09/29 08:08:17;;;;;;;;;;;19.90;91.10;;;;;;4121952;28;20416;-40
2023/09/29 08:10:57;;;;;;;;;;;19.90;91.10;;;;;;4123311;28;19933;-42
2023/09/29 08:13:38;;;;;;;;;;;19.90;91.20;;;;;;4122991;28;20413;-44
2023/09/29 08:16:19;;;;;;;;;;;19.90;91.30;;;;;;4109671;28;19933;-43
2023/09/29 08:19:01;;;;;;;;;;;20.00;91.40;;;;;;4107895;28;19933;-40
2023/09/29 08:21:41;;;;;;;;;;;20.00;91.50;;;;;;4108408;28;19995;-40
2023/09/29 08:24:23;;;;;;;;;;;20.00;91.60;;;;;;4107308;28;20062;-40
2023/09/29 08:27:03;;;;;;;;;;;20.00;91.70;;;;;;4107742;28;19962;-40
2023/09/29 08:29:44;;;;;;;;;;;20.10;91.80;;;;;;4107455;28;19933;-40
2023/09/29 08:32:26;;;;;;;;;;;20.10;92.30;;;;;;4107461;28;19949;-40
2023/09/29 08:35:12;;;;;;;;;;;20.10;91.90;;;;;;4106950;28;20077;-41
2023/09/29 08:37:53;;;;;;;;;;;20.10;91.90;;;;;;4105916;28;20081;-40
2023/09/29 08:40:37;;;;;;;;;;;20.10;91.80;;;;;;4110060;28;20306;-39
2023/09/29 08:43:19;;;;;;;;;;;20.20;91.90;;;;;;4122972;28;20004;-40
2023/09/29 08:46:00;;;;;;;;;;;20.20;91.90;;;;;;4121800;28;19933;-40
2023/09/29 08:48:42;;;;;;;;;;;20.20;92.00;;;;;;4122477;28;20006;-40
2023/09/29 08:51:25;;;;;;;;;;;20.20;91.90;;;;;;4122108;28;19941;-41
2023/09/29 08:54:07;;;;;;;;;;;20.20;91.90;;;;;;4121759;28;19937;-40
2023/09/29 08:56:49;;;;;;;;;;;20.30;92.00;;;;;;4122259;28;20049;-44
2023/09/29 08:59:31;;;;;;;;;;;20.30;92.50;;;;;;4122479;28;19933;-43
2023/09/29 09:02:12;;;;;;;;;;;20.30;92.30;;;;;;4122100;28;20385;-42
2023/09/29 09:04:52;;;;;;;;;;;20.30;92.40;;;;;;4122651;28;19937;-42
2023/09/29 09:07:35;;;;;;;;;;;20.40;92.30;;;;;;4122278;28;19933;-42
2023/09/29 09:10:16;;;;;;;;;;;20.40;92.30;;;;;;4122567;28;19937;-43
2023/09/29 09:13:10;;;;;;;;;;;20.40;92.30;;;;;;4111484;28;19933;-42
2023/09/29 09:15:55;;;;;;;;;;;20.50;92.40;;;;;;4106948;28;19941;-42
2023/09/29 09:18:36;;;;;;;;;;;20.50;92.20;;;;;;4105846;28;19933;-44
2023/09/29 09:21:17;;;;;;;;;;;20.50;92.20;;;;;;4106519;28;19937;-42
2023/09/29 09:23:59;;;;;;;;;;;20.60;92.20;;;;;;4106091;28;20022;-42
2023/09/29 09:26:40;;;;;;;;;;;20.50;92.20;;;;;;4108465;28;19937;-42
2023/09/29 09:29:20;;;;;;;;;;;20.50;92.10;;;;;;4122761;28;19994;-45
2023/09/29 09:32:05;;;;;;;;;;;20.60;92.10;;;;;;4122469;28;19944;-44
2023/09/29 09:34:46;;;;;;;;;;;20.60;92.00;;;;;;4119146;28;19932;-43
2023/09/29 09:37:27;;;;;;;;;;;20.60;92.10;;;;;;4105074;28;19937;-43
2023/09/29 09:40:11;;;;;;;;;;;20.70;92.10;;;;;;4112848;28;19936;-44
2023/09/29 09:42:53;;;;;;;;;;;20.70;91.90;;;;;;4121075;28;19937;-43
2023/09/29 09:45:37;;;;;;;;;;;20.70;91.60;;;;;;4106072;28;20026;-43
2023/09/29 09:48:20;;;;;;;;;;;20.70;91.50;;;;;;4106367;28;20389;-43
2023/09/29 09:51:03;;;;;;;;;;;20.80;91.50;;;;;;4106636;28;20342;-43
2023/09/29 09:53:44;;;;;;;;;;;20.80;91.50;;;;;;4107427;28;20700;-43
2023/09/29 09:56:28;;;;;;;;;;;20.80;91.40;;;;;;4116555;28;19938;-44
2023/09/29 09:59:11;;;;;;;;;;;20.90;91.30;;;;;;4122169;28;19937;-45
2023/09/29 10:01:52;;;;;;;;;;;20.90;91.40;;;;;;4104572;28;19934;-47
2023/09/29 10:04:34;;;;;;;;;;;20.90;91.40;;;;;;4106103;28;19934;-45
2023/09/29 10:07:15;;;;;;;;;;;21.00;91.50;;;;;;4105122;28;19933;-46
2023/09/29 10:09:56;;;;;;;;;;;21.00;91.50;;;;;;4105693;28;19953;-45
2023/09/29 10:12:38;;;;;;;;;;;21.00;91.40;;;;;;4115773;28;20012;-45
2023/09/29 10:15:19;;;;;;;;;;;21.00;91.50;;;;;;4122448;28;20325;-45
2023/09/29 10:18:00;;;;;;;;;;;21.10;91.40;;;;;;4122239;28;19933;-43
2023/09/29 10:20:41;;;;;;;;;;;21.10;91.30;;;;;;4120120;28;19932;-44
2023/09/29 10:23:25;;;;;;;;;;;21.10;91.20;;;;;;4109687;28;20325;-44
2023/09/29 10:26:10;;;;;;;;;;;21.10;91.20;;;;;;4124915;28;19937;-43
2023/09/29 10:29:00;;;;;;;;;;;21.10;91.10;;;;;;4127519;28;19969;-47
2023/09/29 10:31:42;;;;;;;;;;;21.20;91.10;;;;;;4109238;28;20395;-43
2023/09/29 10:34:24;;;;;;;;;;;21.10;91.10;;;;;;4116767;28;19937;-43
2023/09/29 10:37:05;;;;;;;;;;;21.10;91.10;;;;;;4109376;28;20064;-43
2023/09/29 10:39:46;;;;;;;;;;;21.20;91.20;;;;;;4107829;28;20038;-46
2023/09/29 10:42:33;;;;;;;;;;;21.20;91.20;;;;;;4108824;28;19934;-40
2023/09/29 10:45:25;;;;;;;;;;;21.20;91.20;;;;;;4107469;28;20093;-40
2023/09/29 10:48:07;;;;;;;;;;;21.20;91.20;;;;;;4107456;28;20420;-40
2023/09/29 10:50:49;;;;;;;;;;;21.30;91.20;;;;;;4115071;28;19934;-45
2023/09/29 10:53:36;;;;;;;;;;;21.30;91.20;;;;;;4124472;28;19941;-44
2023/09/29 10:56:20;;;;;;;;;;;21.30;91.50;;;;;;4124235;28;19968;-43
2023/09/29 10:59:05;;;;;;;;;;;21.40;91.10;;;;;;4124580;28;19933;-44
2023/09/29 11:01:48;;;;;;;;;;;21.40;91.10;;;;;;4124567;28;19933;-45
2023/09/29 11:04:29;;;;;;;;;;;21.40;91.10;;;;;;4124386;28;19952;-49
2023/09/29 11:07:09;;;;;;;;;;;21.40;91.10;;;;;;4124090;28;20389;-45
2023/09/29 11:09:50;;;;;;;;;;;21.40;91.10;;;;;;4116751;28;20405;-44
2023/09/29 11:12:36;;;;;;;;;;;21.50;91.10;;;;;;4124879;28;19971;-48
2023/09/29 11:15:18;;;;;;;;;;;21.50;91.40;;;;;;4124380;28;19932;-44
2023/09/29 11:18:01;;;;;;;;;;;21.40;91.10;;;;;;4122934;28;20019;-46
2023/09/29 11:20:51;;;;;;;;;;;21.50;91.20;;;;;;4123060;28;19996;-48
2023/09/29 11:23:39;;;;;;;;;;;21.50;91.30;;;;;;4124476;28;19933;-46
2023/09/29 11:26:20;;;;;;;;;;;21.50;91.30;;;;;;4124748;28;20290;-45
2023/09/29 11:29:02;;;;;;;;;;;21.50;91.30;;;;;;4122697;28;19944;-41
2023/09/29 11:31:43;;;;;;;;;;;21.50;91.30;;;;;;4123013;28;19937;-41
2023/09/29 11:34:29;;;;;;;;;;;21.50;91.70;;;;;;4124159;28;20302;-43
2023/09/29 11:37:12;;;;;;;;;;;21.50;91.70;;;;;;4123544;28;20309;-42
2023/09/29 11:39:53;;;;;;;;;;;21.60;91.40;;;;;;4113915;28;20016;-41
2023/09/29 11:42:36;;;;;;;;;;;21.60;91.30;;;;;;4106773;28;20076;-45
2023/09/29 11:45:16;;;;;;;;;;;21.60;91.20;;;;;;4106507;28;19933;-45
2023/09/29 11:47:57;;;;;;;;;;;21.60;91.40;;;;;;4107050;28;19933;-44
2023/09/29 11:50:40;;;;;;;;;;;21.60;91.40;;;;;;4116881;28;19950;-49
2023/09/29 11:53:21;;;;;;;;;;;21.60;91.40;;;;;;4106496;28;20037;-49
2023/09/29 11:56:01;;;;;;;;;;;21.60;91.40;;;;;;4107025;28;19985;-50
2023/09/29 11:58:42;;;;;;;;;;;21.60;91.30;;;;;;4105933;28;20394;-48
2023/09/29 12:01:26;;;;;;;;;;;21.60;91.40;;;;;;4107446;28;19937;-46
2023/09/29 12:04:07;;;;;;;;;;;21.60;91.30;;;;;;4119386;28;19933;-45
2023/09/29 12:06:49;;;;;;;;;;;21.60;91.30;;;;;;4123034;28;20019;-43
2023/09/29 12:09:30;;;;;;;;;;;21.60;91.30;;;;;;4116975;28;20405;-42
2023/09/29 12:12:12;;;;;;;;;;;21.60;91.70;;;;;;4106174;28;19933;-46
2023/09/29 12:14:53;;;;;;;;;;;21.70;91.30;;;;;;4105443;28;19937;-43
2023/09/29 12:17:34;;;;;;;;;;;21.70;91.30;;;;;;4106335;28;19976;-43
2023/09/29 12:20:14;;;;;;;;;;;21.70;91.70;;;;;;4106868;28;20299;-43
2023/09/29 12:22:59;;;;;;;;;;;21.70;91.30;;;;;;4105277;28;19973;-44
2023/09/29 12:25:39;;;;;;;;;;;21.70;91.30;;;;;;4106464;28;20408;-46
2023/09/29 12:28:20;;;;;;;;;;;21.70;91.30;;;;;;4106600;28;20024;-43
2023/09/29 12:31:01;;;;;;;;;;;21.70;91.30;;;;;;4119194;28;19937;-43
2023/09/29 12:33:44;;;;;;;;;;;21.70;91.30;;;;;;4118188;28;19952;-44
2023/09/29 12:36:25;;;;;;;;;;;21.70;91.70;;;;;;4106759;28;19964;-45
2023/09/29 12:39:08;;;;;;;;;;;21.70;91.30;;;;;;4108226;28;20330;-45
2023/09/29 12:41:49;;;;;;;;;;;21.70;91.20;;;;;;4108303;28;20064;-46
2023/09/29 12:44:30;;;;;;;;;;;21.70;91.20;;;;;;4121528;28;20301;-45
2023/09/29 12:47:10;;;;;;;;;;;21.70;91.30;;;;;;4106086;28;19933;-45
2023/09/29 12:49:51;;;;;;;;;;;21.70;91.20;;;;;;4111510;28;19937;-42
2023/09/29 12:52:32;;;;;;;;;;;21.60;91.20;;;;;;4120580;28;20397;-43
2023/09/29 12:55:14;;;;;;;;;;;21.60;91.50;;;;;;4109928;28;19933;-43
2023/09/29 12:57:55;;;;;;;;;;;21.60;91.20;;;;;;4122401;28;19936;-42
2023/09/29 13:00:36;;;;;;;;;;;21.50;91.60;;;;;;4121271;28;20448;-41
2023/09/29 13:03:17;;;;;;;;;;;21.50;91.30;;;;;;4121633;28;19933;-43
2023/09/29 13:05:59;;;;;;;;;;;21.40;91.40;;;;;;4120715;28;20401;-43
2023/09/29 13:08:41;;;;;;;;;;;21.40;91.40;;;;;;4108567;28;19980;-43
2023/09/29 13:11:25;;;;;;;;;;;21.30;91.40;;;;;;4105491;28;19968;-43
2023/09/29 13:14:06;;;;;;;;;;;21.30;91.50;;;;;;4105648;28;20294;-48
2023/09/29 13:16:47;;;;;;;;;;;21.20;91.40;;;;;;4105259;28;19937;-43
2023/09/29 13:19:27;;;;;;;;;;;21.20;91.50;;;;;;4105444;28;19934;-44
2023/09/29 13:22:08;;;;;;;;;;;21.20;91.50;;;;;;4117291;28;19937;-43
2023/09/29 13:24:50;;;;;;;;;;;21.10;91.50;;;;;;4110440;28;20293;-47
2023/09/29 13:27:32;;;;;;;;;;;21.10;91.60;;;;;;4105559;28;20496;-48
2023/09/29 13:30:13;;;;;;;;;;;21.00;91.70;;;;;;4105923;28;19937;-44
2023/09/29 13:32:54;;;;;;;;;;;21.00;92.10;;;;;;4105353;28;20310;-43
2023/09/29 13:35:36;;;;;;;;;;;21.00;91.80;;;;;;4108714;28;19972;-43
2023/09/29 13:38:17;;;;;;;;;;;21.00;91.80;;;;;;4120669;28;19948;-45
2023/09/29 13:40:58;;;;;;;;;;;21.00;91.90;;;;;;4119244;28;19940;-44
2023/09/29 13:43:40;;;;;;;;;;;20.90;91.90;;;;;;4115793;28;20038;-43
2023/09/29 13:46:21;;;;;;;;;;;20.90;92.10;;;;;;4104326;28;20429;-43
2023/09/29 13:49:01;;;;;;;;;;;20.90;92.10;;;;;;4104913;28;19937;-43
2023/09/29 13:51:46;;;;;;;;;;;20.90;92.10;;;;;;4120184;28;19933;-45
2023/09/29 13:54:26;;;;;;;;;;;20.90;92.10;;;;;;4124103;28;19937;-43
2023/09/29 13:57:07;;;;;;;;;;;20.90;92.10;;;;;;4123840;28;20012;-43
2023/09/29 13:59:50;;;;;;;;;;;20.80;92.00;;;;;;4122051;28;19937;-43
2023/09/29 14:02:30;;;;;;;;;;;20.80;92.00;;;;;;4117989;28;19933;-45
2023/09/29 14:05:12;;;;;;;;;;;20.80;92.40;;;;;;4107712;28;20306;-46
2023/09/29 14:07:53;;;;;;;;;;;20.80;92.10;;;;;;4106592;28;19937;-45
2023/09/29 14:10:34;;;;;;;;;;;20.80;92.10;;;;;;4107823;28;20015;-45
2023/09/29 14:13:16;;;;;;;;;;;20.80;92.50;;;;;;4099614;28;19932;-46
2023/09/29 14:15:58;;;;;;;;;;;20.80;92.10;;;;;;4107621;28;19937;-43
2023/09/29 14:18:39;;;;;;;;;;;20.80;92.20;;;;;;4111097;28;19932;-49
2023/09/29 14:21:20;;;;;;;;;;;20.90;92.50;;;;;;4118490;28;19952;-46
2023/09/29 14:24:01;;;;;;;;;;;20.80;91.90;;;;;;4107704;28;20065;-46
2023/09/29 14:26:42;;;;;;;;;;;20.80;91.80;;;;;;4106304;28;20309;-43
2023/09/29 14:29:23;;;;;;;;;;;20.80;91.80;;;;;;4113535;28;19936;-44
2023/09/29 14:32:05;;;;;;;;;;;20.80;92.20;;;;;;4111726;28;20037;-46
2023/09/29 14:34:45;;;;;;;;;;;20.80;91.80;;;;;;4115656;28;19937;-47
2023/09/29 14:37:26;;;;;;;;;;;20.80;91.80;;;;;;4123401;28;19991;-47
2023/09/29 14:40:08;;;;;;;;;;;20.80;91.80;;;;;;4123794;28;20302;-45
2023/09/29 14:42:49;;;;;;;;;;;20.80;91.70;;;;;;4111237;28;19933;-43
2023/09/29 14:45:29;;;;;;;;;;;20.80;92.00;;;;;;4107341;28;19937;-43
2023/09/29 14:48:12;;;;;;;;;;;20.80;91.40;;;;;;4116784;28;19975;-44
2023/09/29 14:50:53;;;;;;;;;;;20.80;91.30;;;;;;4118665;28;19937;-47
2023/09/29 14:53:33;;;;;;;;;;;20.80;91.20;;;;;;4107030;28;19933;-48
2023/09/29 14:56:14;;;;;;;;;;;20.70;91.10;;;;;;4106299;28;19937;-44
2023/09/29 14:58:55;;;;;;;;;;;20.70;90.80;;;;;;4107067;28;19938;-43
2023/09/29 15:01:36;;;;;;;;;;;20.70;90.80;;;;;;4108037;28;19948;-43
2023/09/29 15:04:18;;;;;;;;;;;20.70;90.60;;;;;;4106771;28;20065;-44
2023/09/29 15:06:59;;;;;;;;;;;20.70;90.70;;;;;;4106039;28;19933;-44
2023/09/29 15:09:40;;;;;;;;;;;20.70;90.70;;;;;;4109738;28;19933;-42
2023/09/29 15:12:22;;;;;;;;;;;20.70;90.80;;;;;;4126375;28;19937;-42
2023/09/29 15:15:04;;;;;;;;;;;20.70;90.70;;;;;;4107645;28;19937;-42
2023/09/29 15:17:44;;;;;;;;;;;20.70;90.70;;;;;;4116589;28;20377;-44
2023/09/29 15:20:27;;;;;;;;;;;20.70;90.50;;;;;;4119216;28;19933;-42
2023/09/29 15:23:08;;;;;;;;;;;20.70;90.70;;;;;;4108119;28;19933;-42
2023/09/29 15:25:51;;;;;;;;;;;20.70;90.80;;;;;;4106327;28;19968;-43
2023/09/29 15:28:32;;;;;;;;;;;20.70;90.90;;;;;;4106097;28;19937;-44
2023/09/29 15:31:13;;;;;;;;;;;20.70;90.90;;;;;;4118431;28;19933;-43
2023/09/29 15:33:55;;;;;;;;;;;20.70;91.20;;;;;;4106558;28;20069;-44
2023/09/29 15:36:37;;;;;;;;;;;20.80;91.30;;;;;;4107366;28;20417;-44
2023/09/29 15:39:19;;;;;;;;;;;20.80;91.20;;;;;;4106548;28;19933;-42
2023/09/29 15:41:59;;;;;;;;;;;20.70;91.10;;;;;;4105941;28;19933;-47
2023/09/29 15:44:40;;;;;;;;;;;20.70;91.50;;;;;;4107334;28;20460;-44
2023/09/29 15:47:20;;;;;;;;;;;20.70;91.30;;;;;;4107257;28;19945;-47
2023/09/29 15:50:07;;;;;;;;;;;20.70;91.60;;;;;;4106419;28;20057;-42
2023/09/29 15:52:49;;;;;;;;;;;20.70;91.90;;;;;;4107132;28;19932;-43
2023/09/29 15:55:30;;;;;;;;;;;20.80;92.10;;;;;;4106803;28;19940;-45
2023/09/29 15:58:11;;;;;;;;;;;20.80;92.20;;;;;;4106926;28;19961;-45
2023/09/29 16:00:52;;;;;;;;;;;20.80;92.40;;;;;;4106828;28;19941;-44
2023/09/29 16:03:33;;;;;;;;;;;20.80;92.40;;;;;;4106851;28;20008;-42